• Join FlightAware (Why Join?)
  • Login
  • US Flag 
10:01PM EDT


 

Airport Tracker/Info


-or-


 

Live Flight TrackerFlight Track Log ✈ ASQ5963 ✈ 16-Sep-2013 ✈ KEWR - KRDU

Flight Track Log - Related Links

Times and Time Zones

All times are in EDT time to prevent confusion due to time zone crossing. See the ASQ5963 flight status page for this flight to view local times or setup timezone preferences in your user account.

Time Position Orientation Groundspeed Altitude Reporting Facility
EDT Latitude Longitude Course Direction KTS MPH feet Rate Location/Type
08:15AM 40.6333 -74.1833 226° Southwest 198 228 1,500  Level New York TRACON
08:16AM 40.5833 -74.2333 217° Southwest 257 296 3,100 2,040 Climbing New York TRACON
08:17AM 40.5167 -74.2667 201° Southwest 259 298 5,700 1,380 Climbing New York TRACON
08:18AM 40.4333 -74.2167 155° Southeast 288 331 6,000 120 Climbing New York TRACON
08:18AM 40.3725 -74.1900 162° South 291 335 6,000  Level New York Center
08:19AM 40.3147 -74.1681 164° South 279 321 6,000  Level New York Center
08:20AM 40.2509 -74.6269 226° Southwest  Level Estimated
08:20AM 40.2436 -74.1808 188° South 275 316 6,000  Level New York Center
08:21AM 40.1958 -74.1050 130° Southeast 249 287 7,600 1,740 Climbing New York Center
08:22AM 40.1250 -74.1044 180° South 224 258 9,600 1,860 Climbing New York Center
08:23AM 40.0731 -74.1697 224° Southwest 209 241 11,400 1,260 Climbing New York Center
08:24AM 40.0144 -74.2428 224° Southwest 254 292 12,200 1,200 Climbing New York Center
08:25AM 39.9808 -74.3278 243° Southwest 295 339 13,800 1,380 Climbing New York Center
08:26AM 39.9261 -74.4117 230° Southwest 309 356 15,000 1,200 Climbing New York Center
08:27AM 39.8439 -74.5025 220° Southwest 317 365 16,400 1,260 Climbing Washington Center
08:28AM 39.7758 -74.5792 221° Southwest 324 373 17,800 1,860 Climbing Washington Center
08:29AM 39.7139 -74.6475 220° Southwest 324 373 20,200 1,980 Climbing Washington Center
08:30AM 39.6542 -74.7156 221° Southwest 303 349 21,900 840 Climbing Washington Center
08:32AM 39.5900 -74.7892 221° Southwest 303 349 22,000  Climbing Washington Center
08:32AM 39.5300 -74.8569 221° Southwest 310 357 22,000  Level Washington Center
08:33AM 39.4678 -74.9275 221° Southwest 310 357 22,000  Level Washington Center
08:34AM 39.4058 -74.9953 220° Southwest 305 351 22,000  Level Washington Center
08:36AM 39.3372 -75.0711 221° Southwest 310 357 22,000  Level Washington Center
08:36AM 39.2750 -75.1464 223° Southwest 310 357 22,000  Level Washington Center
08:37AM 39.2150 -75.2247 225° Southwest 310 357 22,000  Level Washington Center
08:39AM 39.1547 -75.3025 225° Southwest 310 357 22,000  Level Washington Center
08:40AM 39.0944 -75.3803 225° Southwest 310 357 22,000  Level Washington Center
08:40AM 39.0342 -75.4581 225° Southwest 310 357 22,000  Level Washington Center
08:41AM 38.9736 -75.5356 225° Southwest 305 351 22,000  Level Washington Center
08:43AM 38.9050 -75.6208 224° Southwest 319 367 22,000  Level Washington Center
08:43AM 38.8611 -75.7356 244° Southwest 343 395 22,000  Level Washington Center
08:45AM 38.8214 -75.8556 247° West 363 418 22,000  Level Washington Center
08:45AM 38.7628 -75.9644 235° Southwest 368 423 22,000  Level Washington Center
08:46AM 38.6728 -76.0436 214° Southwest 373 429 22,000  Level Washington Center
08:47AM 38.5764 -76.1281 214° Southwest 385 443 22,000  Level Washington Center
08:49AM 38.4989 -76.2072 219° Southwest 396 456 22,000  Level Washington Center
08:49AM 38.4153 -76.2833 216° Southwest 390 449 22,000  Level Washington Center
08:50AM 38.3292 -76.3619 216° Southwest 390 449 22,000  Level Washington Center
08:51AM 38.2494 -76.4564 223° Southwest 385 443 22,000  Level Washington Center
08:53AM 38.1778 -76.5506 226° Southwest 372 428 22,000  Level Washington Center
08:53AM 38.1081 -76.6500 228° Southwest 372 428 22,000  Level Washington Center
08:54AM 38.0406 -76.7467 228° Southwest 372 428 22,000  Level Washington Center
08:56AM 37.9686 -76.8403 226° Southwest 372 428 22,000  Level Washington Center
08:56AM 37.8658 -76.8886 200° South 377 434 22,000  Level Washington Center
08:58AM 37.7633 -76.9342 199° South 377 434 22,000  Level Washington Center
08:58AM 37.6606 -76.9769 198° South 391 450 22,000  Level Washington Center
09:00AM 37.5558 -77.0194 198° South 391 450 22,000  Level Washington Center
09:00AM 37.4467 -77.0647 198° South 408 470 22,000  Level Washington Center
09:01AM 37.3503 -77.1097 200° South 408 470 22,000  Level Washington Center
09:02AM 37.2514 -77.1706 206° Southwest 408 470 22,000  Level Washington Center
09:03AM 37.1544 -77.2361 208° Southwest 403 464 22,000  Level Washington Center
09:05AM 37.0575 -77.3097 211° Southwest 403 464 22,000  Level Washington Center
09:05AM 36.9606 -77.3803 210° Southwest 409 471 22,000  Level Washington Center
09:06AM 36.8656 -77.4506 211° Southwest 409 471 22,000  Level Washington Center
09:07AM 36.7581 -77.5311 211° Southwest 409 471 22,000  Level Washington Center
09:09AM 36.6631 -77.5986 210° Southwest 409 471 22,000 -240 Level Washington Center
09:09AM 36.5700 -77.6711 212° Southwest 409 471 21,600 -1,560 Descending Washington Center
09:10AM 36.4850 -77.7569 219° Southwest 409 471 19,000 -1,920 Descending Washington Center
09:11AM 36.4186 -77.8453 227° Southwest 397 457 17,800 -1,620 Descending Washington Center
09:12AM 36.3503 -77.9336 226° Southwest 375 432 15,800 -2,220 Descending Washington Center
09:13AM 36.2944 -78.0042 226° Southwest 332 382 13,900 -2,100 Descending Washington Center
09:14AM 36.2881 -78.0169 238° Southwest 354 407 13,700 -1,500 Descending Washington Center
09:14AM 36.2408 -78.0747 225° Southwest 339 390 12,700 -1,500 Descending Washington Center
09:14AM 36.2217 -78.1022 229° Southwest 349 402 12,300 -1,920 Descending Washington Center
09:15AM 36.1569 -78.1953 229° Southwest 336 387 10,000 -1,500 Descending Washington Center
09:16AM 36.1453 -78.2517 256° West 258 297 9,700 -300 Descending Washington Center
09:17AM 36.1428 -78.2722 261° West 277 319 9,700 -600 Level Washington Center
09:17AM 36.1333 -78.3233 257° West 169 194 9,100 -900 Descending Washington Center
09:18AM 36.1289 -78.3386 250° West 231 266 8,800 -1,020 Descending Washington Center
09:18AM 36.1133 -78.3792 245° Southwest 167 192 8,100 -1,080 Descending Washington Center
09:18AM 36.1108 -78.3919 256° West 188 216 7,800 -1,140 Descending Washington Center
09:19AM 36.0953 -78.4300 243° Southwest 166 191 7,000 -1,140 Descending Washington Center
09:19AM 36.0908 -78.4425 246° West 171 197 6,700 -1,080 Descending Washington Center
09:20AM 36.0753 -78.4806 243° Southwest 165 190 5,900 -1,020 Descending Washington Center
09:21AM 36.0708 -78.4906 241° Southwest 171 197 5,700 -1,560 Descending Washington Center
09:21AM 36.0511 -78.5361 242° Southwest 194 223 4,500 -1,500 Descending Washington Center
09:21AM 36.0467 -78.5489 247° West 176 203 4,300 -1,440 Descending Washington Center
09:22AM 36.0267 -78.5892 238° Southwest 188 216 3,100 -1,320 Descending Washington Center
09:22AM 36.0222 -78.6019 247° West 181 208 3,000 -240 Descending Washington Center
09:23AM 35.9986 -78.6344 228° Southwest 171 197 2,900 -120 Descending Washington Center
09:24AM 35.9642 -78.6742 223° Southwest 165 190 2,800 -540 Descending Washington Center
09:26AM 35.9167 -78.7339 226° Southwest 164 189 1,600 -840 Descending Washington Center
09:27AM 35.8931 -78.7611 223° Southwest 129 148 900 -780 Descending Washington Center